createdAt,value
2018-04-07T00:02:09.530Z,7.13
2018-04-07T00:04:36.982Z,4.80
2018-04-07T00:07:04.442Z,9.47
2018-04-07T00:09:31.926Z,7.40
2018-04-07T00:12:00.148Z,7.67
2018-04-07T00:14:27.622Z,7.23
2018-04-07T00:16:55.089Z,9.03
2018-04-07T00:19:23.340Z,6.80
2018-04-07T00:21:50.794Z,10.30
2018-04-07T00:24:18.272Z,7.13
2018-04-07T00:26:45.729Z,7.77
2018-04-07T00:29:13.202Z,7.70
2018-04-07T00:31:40.706Z,5.90
2018-04-07T00:34:08.183Z,6.07
2018-04-07T00:36:35.672Z,7.17
2018-04-07T00:39:03.134Z,7.67
2018-04-07T00:41:31.373Z,5.90
2018-04-07T00:43:58.865Z,7.83
2018-04-07T00:46:27.085Z,6.83
2018-04-07T00:48:54.561Z,6.80
2018-04-07T00:51:22.054Z,6.17
2018-04-07T00:53:50.338Z,9.23
2018-04-07T00:56:18.578Z,6.47
2018-04-07T00:58:46.055Z,5.47
2018-04-07T01:01:13.541Z,6.97
2018-04-07T01:03:40.992Z,9.00
2018-04-07T01:06:08.438Z,7.93
2018-04-07T01:08:36.684Z,7.97
2018-04-07T01:11:04.137Z,9.27
2018-04-07T01:13:31.612Z,5.50
2018-04-07T01:15:59.079Z,7.87
2018-04-07T01:18:26.637Z,9.30
2018-04-07T01:20:54.086Z,5.47
2018-04-07T01:23:21.579Z,6.97
2018-04-07T01:25:49.166Z,6.37
2018-04-07T01:28:16.626Z,9.43
2018-04-07T01:30:44.129Z,6.27
2018-04-07T01:33:12.363Z,7.67
2018-04-07T01:35:39.869Z,8.97
2018-04-07T01:38:08.112Z,9.73
2018-04-07T01:40:35.592Z,6.90
2018-04-07T01:43:03.062Z,7.00
2018-04-07T01:45:31.439Z,6.37
2018-04-07T01:47:59.686Z,8.37
2018-04-07T01:50:27.158Z,7.73
2018-04-07T01:52:54.633Z,6.10
2018-04-07T01:55:22.134Z,8.33
2018-04-07T01:57:49.619Z,4.03
2018-04-07T02:00:17.103Z,8.47
2018-04-07T02:02:45.334Z,8.43
2018-04-07T02:05:12.813Z,6.23
2018-04-07T02:07:40.265Z,5.17
2018-04-07T02:10:08.538Z,5.83
2018-04-07T02:12:35.998Z,6.80
2018-04-07T02:15:03.471Z,6.77
2018-04-07T02:17:30.945Z,5.00
2018-04-07T02:19:58.402Z,6.47
2018-04-07T02:22:26.006Z,6.70
2018-04-07T02:24:53.477Z,5.77
2018-04-07T02:27:20.961Z,7.37
2018-04-07T02:29:49.206Z,9.97
2018-04-07T02:32:16.674Z,6.60
2018-04-07T02:34:44.173Z,7.60
2018-04-07T02:37:12.415Z,7.30
2018-04-07T02:39:39.950Z,7.27
2018-04-07T02:42:08.169Z,5.90
2018-04-07T02:44:35.642Z,5.97
2018-04-07T02:47:03.862Z,9.13
2018-04-07T02:49:31.339Z,4.40
2018-04-07T02:51:58.799Z,7.63
2018-04-07T02:54:26.275Z,7.97
2018-04-07T02:56:54.893Z,6.80
2018-04-07T02:59:22.398Z,6.47
2018-04-07T03:01:49.874Z,5.20
2018-04-07T03:04:18.208Z,6.17
2018-04-07T03:06:45.692Z,7.30
2018-04-07T03:09:13.272Z,8.80
2018-04-07T03:11:41.502Z,7.47
2018-04-07T03:14:08.981Z,5.53
2018-04-07T03:16:36.442Z,7.90
2018-04-07T03:19:03.920Z,8.70
2018-04-07T03:21:31.390Z,7.00
2018-04-07T03:23:59.636Z,10.13
2018-04-07T03:26:27.142Z,9.23
2018-04-07T03:28:54.585Z,6.80
2018-04-07T03:31:22.068Z,6.03
2018-04-07T03:33:49.522Z,6.50
2018-04-07T03:36:17.012Z,8.50
2018-04-07T03:38:44.493Z,7.67
2018-04-07T03:41:12.733Z,6.50
2018-04-07T03:43:40.274Z,8.00
2018-04-07T03:46:07.730Z,7.53
2018-04-07T03:48:35.205Z,6.77
2018-04-07T03:51:02.680Z,5.07
2018-04-07T03:53:30.162Z,4.67
2018-04-07T03:55:58.370Z,9.63
2018-04-07T03:58:26.132Z,7.63
2018-04-07T04:00:53.573Z,7.83
2018-04-07T04:03:21.135Z,5.67
2018-04-07T04:05:48.658Z,5.87
2018-04-07T04:08:16.123Z,4.97
2018-04-07T04:10:43.621Z,9.10
2018-04-07T04:13:11.074Z,9.77
2018-04-07T04:15:38.646Z,9.07
2018-04-07T04:18:06.234Z,7.57
2018-04-07T04:20:33.701Z,6.97
2018-04-07T04:23:01.200Z,7.67
2018-04-07T04:25:28.677Z,10.47
2018-04-07T04:27:56.137Z,8.07
2018-04-07T04:30:23.622Z,6.70
2018-04-07T04:32:51.077Z,6.63
2018-04-07T04:35:18.563Z,8.37
2018-04-07T04:37:46.781Z,5.67
2018-04-07T04:40:14.261Z,8.53
2018-04-07T04:42:41.842Z,7.73
2018-04-07T04:45:10.081Z,5.43
2018-04-07T04:47:37.545Z,9.00
2018-04-07T04:50:05.011Z,7.77
2018-04-07T04:52:32.527Z,4.80
2018-04-07T04:54:59.993Z,6.10
2018-04-07T04:57:27.485Z,6.73
2018-04-07T04:59:54.962Z,5.53
2018-04-07T05:02:22.553Z,8.00
2018-04-07T05:04:50.020Z,5.73
2018-04-07T05:07:17.516Z,5.37
2018-04-07T05:09:44.962Z,6.00
2018-04-07T05:12:12.442Z,11.80
2018-04-07T05:14:39.948Z,7.67
2018-04-07T05:17:07.473Z,7.30
2018-04-07T05:19:34.917Z,6.87
2018-04-07T05:22:02.417Z,7.60
2018-04-07T05:24:29.894Z,8.93
2018-04-07T05:26:57.370Z,9.20
2018-04-07T05:29:24.824Z,9.53
2018-04-07T05:31:52.326Z,5.77
2018-04-07T05:34:20.629Z,8.33
2018-04-07T05:36:48.112Z,10.17
2018-04-07T05:39:16.338Z,8.17
2018-04-07T05:41:43.953Z,7.03
2018-04-07T05:44:11.428Z,9.23
2018-04-07T05:46:38.922Z,9.07
2018-04-07T05:49:06.362Z,6.43
2018-04-07T05:51:33.831Z,6.03
2018-04-07T05:54:02.075Z,8.97
2018-04-07T05:56:29.551Z,6.90
2018-04-07T05:58:57.766Z,9.33
2018-04-07T06:01:25.226Z,11.87
2018-04-07T06:03:52.696Z,5.37
2018-04-07T06:06:20.150Z,10.23
2018-04-07T06:08:47.638Z,13.53
2018-04-07T06:11:15.086Z,7.57
2018-04-07T06:13:42.526Z,7.70
2018-04-07T06:16:10.009Z,7.77
2018-04-07T06:18:37.441Z,8.57
2018-04-07T06:21:04.925Z,8.50
2018-04-07T06:23:32.432Z,10.07
2018-04-07T06:25:59.912Z,11.53
2018-04-07T06:28:27.406Z,8.03
2018-04-07T06:30:55.624Z,8.37
2018-04-07T06:33:23.102Z,7.17
2018-04-07T06:35:50.549Z,6.57
2018-04-07T06:38:18.027Z,7.73
2018-04-07T06:40:45.512Z,6.77
2018-04-07T06:43:12.966Z,9.20
2018-04-07T06:45:40.443Z,8.50
2018-04-07T06:48:08.685Z,10.23
2018-04-07T06:50:36.935Z,11.17
2018-04-07T06:53:05.158Z,9.37
2018-04-07T06:55:32.614Z,7.37
2018-04-07T06:58:00.849Z,7.70
2018-04-07T07:00:28.310Z,7.87
2018-04-07T07:02:55.785Z,8.90
2018-04-07T07:05:23.302Z,7.13
2018-04-07T07:07:50.774Z,8.63
2018-04-07T07:10:18.247Z,8.30
2018-04-07T07:12:45.717Z,10.30
2018-04-07T07:15:13.169Z,8.70
2018-04-07T07:17:40.785Z,6.47
2018-04-07T07:20:08.245Z,6.13
2018-04-07T07:22:35.722Z,8.17
2018-04-07T07:25:03.173Z,8.47
2018-04-07T07:27:30.663Z,9.23
2018-04-07T07:29:58.118Z,8.87
2018-04-07T07:32:25.605Z,7.70
2018-04-07T07:34:53.082Z,7.50
2018-04-07T07:37:20.550Z,8.57
2018-04-07T07:39:48.050Z,7.73
2018-04-07T07:42:15.530Z,8.63
2018-04-07T07:44:42.990Z,8.63
2018-04-07T07:47:11.230Z,7.93
2018-04-07T07:49:38.690Z,11.63
2018-04-07T07:52:06.174Z,8.10
2018-04-07T07:54:34.412Z,6.97
2018-04-07T07:57:01.893Z,10.20
2018-04-07T07:59:29.341Z,10.33
2018-04-07T08:01:56.822Z,9.27
2018-04-07T08:04:24.310Z,11.87
2018-04-07T08:06:51.789Z,8.47
2018-04-07T08:09:19.258Z,10.80
2018-04-07T08:11:46.767Z,5.67
2018-04-07T08:14:14.228Z,8.83
2018-04-07T08:16:41.857Z,6.53
2018-04-07T08:19:10.079Z,7.30
2018-04-07T08:21:37.562Z,9.73
2018-04-07T08:24:05.045Z,9.43
2018-04-07T08:26:32.534Z,8.77
2018-04-07T08:29:00.010Z,10.03
2018-04-07T08:31:27.490Z,10.10
2018-04-07T08:33:54.998Z,7.97
2018-04-07T08:36:23.221Z,13.20
2018-04-07T08:38:50.695Z,12.17
2018-04-07T08:41:18.166Z,7.03
2018-04-07T08:43:46.420Z,11.20
2018-04-07T08:46:13.930Z,10.50
2018-04-07T08:48:41.430Z,8.60
2018-04-07T08:51:08.942Z,9.37
2018-04-07T08:53:36.402Z,10.50
2018-04-07T08:56:03.865Z,9.27
2018-04-07T08:58:31.338Z,15.03
2018-04-07T09:00:58.801Z,9.70
2018-04-07T09:03:26.268Z,13.03
2018-04-07T09:05:53.786Z,8.43
2018-04-07T09:08:21.259Z,11.37
2018-04-07T09:10:48.714Z,8.03
2018-04-07T09:13:16.203Z,9.00
2018-04-07T09:15:43.653Z,9.30
2018-04-07T09:18:11.926Z,12.60
2018-04-07T09:20:39.402Z,6.90
2018-04-07T09:23:06.888Z,9.03
2018-04-07T09:25:35.146Z,10.17
2018-04-07T09:28:02.598Z,13.43
2018-04-07T09:30:30.095Z,11.57
2018-04-07T09:32:58.338Z,9.83
2018-04-07T09:35:25.785Z,8.87
2018-04-07T09:37:53.270Z,16.47
2018-04-07T09:40:21.494Z,7.70
2018-04-07T09:42:48.958Z,8.33
2018-04-07T09:45:16.434Z,9.23
2018-04-07T09:47:43.906Z,8.33
2018-04-07T09:50:12.165Z,9.07
2018-04-07T09:52:39.625Z,8.97
2018-04-07T09:55:07.105Z,8.37
2018-04-07T09:57:34.553Z,8.93
2018-04-07T10:00:02.011Z,9.03
2018-04-07T10:02:35.186Z,9.27
2018-04-07T10:05:02.645Z,9.10
2018-04-07T10:07:30.125Z,9.00
2018-04-07T10:09:58.340Z,9.23
2018-04-07T10:12:25.838Z,9.10
2018-04-07T10:14:53.293Z,11.87
2018-04-07T10:17:20.750Z,8.63
2018-04-07T10:19:48.230Z,11.53
2018-04-07T10:22:15.682Z,7.77
2018-04-07T10:24:43.891Z,8.33
2018-04-07T10:27:11.370Z,8.13
2018-04-07T10:29:38.840Z,11.17
2018-04-07T10:32:06.314Z,8.37
2018-04-07T10:34:35.310Z,23.87
2018-04-07T10:37:02.781Z,9.73
2018-04-07T10:39:31.121Z,12.30
2018-04-07T10:41:58.703Z,9.47
2018-04-07T10:44:26.349Z,11.57
2018-04-07T10:46:53.839Z,11.03
2018-04-07T10:49:22.089Z,18.07
2018-04-07T10:51:49.657Z,59.93
2018-04-07T10:54:17.107Z,9.30
2018-04-07T10:56:44.590Z,9.93
2018-04-07T10:59:12.083Z,19.47
2018-04-07T11:01:39.686Z,8.37
2018-04-07T11:04:07.173Z,10.27
2018-04-07T11:06:34.625Z,10.43
2018-04-07T11:09:02.881Z,10.00
2018-04-07T11:11:30.346Z,9.90
2018-04-07T11:13:57.799Z,8.73
2018-04-07T11:16:25.281Z,9.27
2018-04-07T11:18:52.730Z,14.20
2018-04-07T11:21:20.990Z,9.00
2018-04-07T11:23:48.448Z,13.33
2018-04-07T11:26:15.950Z,13.17
2018-04-07T11:28:43.428Z,12.30
2018-04-07T11:31:10.971Z,12.53
2018-04-07T11:33:38.482Z,12.53
2018-04-07T11:36:06.772Z,11.53
2018-04-07T11:38:34.237Z,10.40
2018-04-07T11:41:02.493Z,11.53
2018-04-07T11:43:29.974Z,17.63
2018-04-07T11:45:57.469Z,13.70
2018-04-07T11:48:24.935Z,10.10
2018-04-07T11:50:52.418Z,18.73
2018-04-07T11:53:19.957Z,10.00
2018-04-07T11:55:48.206Z,14.47
2018-04-07T11:58:15.698Z,16.00
2018-04-07T12:00:43.166Z,9.60
2018-04-07T12:03:10.645Z,11.20
2018-04-07T12:05:38.875Z,11.07
2018-04-07T12:08:06.505Z,12.57
2018-04-07T12:10:34.021Z,12.67
2018-04-07T12:13:01.489Z,10.77
2018-04-07T12:15:28.993Z,12.17
2018-04-07T12:17:56.503Z,13.30
2018-04-07T12:20:24.824Z,13.83
2018-04-07T12:22:52.332Z,13.53
2018-04-07T12:25:19.821Z,10.83
2018-04-07T12:27:47.276Z,11.73
2018-04-07T12:30:14.806Z,10.90
2018-04-07T12:32:42.334Z,9.93
2018-04-07T12:35:09.802Z,11.40
2018-04-07T12:37:37.306Z,15.23
2018-04-07T12:40:04.798Z,13.17
2018-04-07T12:42:33.031Z,10.93
2018-04-07T12:45:00.529Z,12.23
2018-04-07T12:47:28.033Z,13.63
2018-04-07T12:49:55.543Z,13.10
2018-04-07T12:52:23.045Z,10.67
2018-04-07T12:54:52.010Z,11.37
2018-04-07T12:57:19.458Z,10.37
2018-04-07T12:59:46.986Z,11.63
2018-04-07T13:02:15.242Z,9.33
2018-04-07T13:04:42.718Z,11.13
2018-04-07T13:07:10.966Z,10.73
2018-04-07T13:09:39.250Z,10.57
2018-04-07T13:12:06.705Z,11.03
2018-04-07T13:14:34.188Z,12.57
2018-04-07T13:17:01.638Z,13.77
2018-04-07T13:19:29.909Z,14.63
2018-04-07T13:21:57.377Z,10.03
2018-04-07T13:24:25.606Z,13.73
2018-04-07T13:26:53.101Z,9.70
2018-04-07T13:29:21.330Z,11.37
2018-04-07T13:31:48.924Z,13.73
2018-04-07T13:34:16.402Z,11.30
2018-04-07T13:36:43.875Z,11.07
2018-04-07T13:39:11.362Z,10.33
2018-04-07T13:41:38.831Z,11.83
2018-04-07T13:44:06.342Z,10.70
2018-04-07T13:46:33.793Z,9.00
2018-04-07T13:49:01.291Z,11.37
2018-04-07T13:51:28.754Z,8.57
2018-04-07T13:53:56.203Z,9.63
2018-04-07T13:56:23.678Z,12.07
2018-04-07T13:58:51.168Z,11.17
2018-04-07T14:01:18.647Z,11.67
2018-04-07T14:03:46.106Z,9.80
2018-04-07T14:06:13.590Z,11.13
2018-04-07T14:08:41.136Z,9.50
2018-04-07T14:11:08.593Z,9.90
2018-04-07T14:13:36.037Z,10.10
2018-04-07T14:16:03.534Z,11.70
2018-04-07T14:18:30.993Z,10.93
2018-04-07T14:20:58.471Z,10.23
2018-04-07T14:23:25.945Z,9.23
2018-04-07T14:25:53.432Z,9.33
2018-04-07T14:28:20.898Z,8.40
2018-04-07T14:30:48.390Z,15.37
2018-04-07T14:33:15.905Z,9.00
2018-04-07T14:35:43.417Z,10.00
2018-04-07T14:38:10.875Z,9.47
2018-04-07T14:40:38.365Z,13.10
2018-04-07T14:43:05.909Z,9.50
2018-04-07T14:45:33.406Z,13.97
2018-04-07T14:48:01.016Z,12.07
2018-04-07T14:50:29.246Z,13.83
2018-04-07T14:52:56.735Z,10.60
2018-04-07T14:55:24.994Z,10.97
2018-04-07T14:57:52.453Z,10.30
2018-04-07T15:00:19.958Z,11.67
2018-04-07T15:02:47.561Z,10.57
2018-04-07T15:05:15.035Z,11.30
2018-04-07T15:07:42.537Z,9.93
2018-04-07T15:10:09.996Z,9.93
2018-04-07T15:12:37.547Z,10.30
2018-04-07T15:15:04.974Z,12.17
2018-04-07T15:17:33.251Z,11.10
2018-04-07T15:20:00.744Z,14.03
2018-04-07T15:22:28.266Z,11.27
2018-04-07T15:24:55.736Z,13.27
2018-04-07T15:27:24.082Z,11.43
2018-04-07T15:29:51.654Z,11.07
2018-04-07T15:32:19.117Z,15.03
2018-04-07T15:34:46.596Z,9.10
2018-04-07T15:37:14.066Z,9.67
2018-04-07T15:39:41.584Z,13.37
2018-04-07T15:42:09.046Z,11.40
2018-04-07T15:44:36.537Z,14.53
2018-04-07T15:47:04.841Z,13.17
2018-04-07T15:49:32.304Z,11.63
2018-04-07T15:51:59.795Z,11.30
2018-04-07T15:54:27.253Z,12.33
2018-04-07T15:56:55.006Z,12.87
2018-04-07T15:59:22.462Z,12.23
2018-04-07T16:01:49.950Z,12.83
2018-04-07T16:04:17.434Z,13.57
2018-04-07T16:06:44.906Z,12.67
2018-04-07T16:09:12.392Z,14.30
2018-04-07T16:11:39.866Z,10.03
2018-04-07T16:14:08.654Z,12.27
2018-04-07T16:16:36.106Z,12.87
2018-04-07T16:19:03.607Z,15.00
2018-04-07T16:21:31.069Z,14.03
2018-04-07T16:23:58.586Z,17.00
2018-04-07T16:26:27.560Z,12.23
2018-04-07T16:28:55.142Z,13.53
2018-04-07T16:31:22.598Z,11.33
2018-04-07T16:33:50.077Z,16.97
2018-04-07T16:36:18.418Z,14.03
2018-04-07T16:38:45.902Z,14.37
2018-04-07T16:41:14.150Z,14.40
2018-04-07T16:43:41.630Z,14.03
2018-04-07T16:46:09.277Z,14.33
2018-04-07T16:48:36.751Z,13.57
2018-04-07T16:51:04.983Z,14.60
2018-04-07T16:53:32.438Z,13.97
2018-04-07T16:55:59.934Z,12.37
2018-04-07T16:58:27.429Z,12.60
2018-04-07T17:00:54.907Z,11.83
2018-04-07T17:03:22.701Z,12.97
2018-04-07T17:05:50.386Z,10.47
2018-04-07T17:08:18.030Z,12.80
2018-04-07T17:10:45.527Z,10.73
2018-04-07T17:13:13.779Z,14.47
2018-04-07T17:15:42.006Z,17.57
2018-04-07T17:18:09.492Z,14.37
2018-04-07T17:20:36.977Z,14.83
2018-04-07T17:23:05.306Z,13.27
2018-04-07T17:25:32.794Z,15.17
2018-04-07T17:28:00.250Z,14.73
2018-04-07T17:30:27.749Z,13.23
2018-04-07T17:32:55.208Z,13.23
2018-04-07T17:35:22.698Z,14.10
2018-04-07T17:37:50.154Z,17.77
2018-04-07T17:40:17.609Z,11.90
2018-04-07T17:42:45.089Z,14.77
2018-04-07T17:45:12.558Z,13.40
2018-04-07T17:47:40.824Z,13.50
2018-04-07T17:50:09.076Z,15.00
2018-04-07T17:52:36.537Z,12.50
2018-04-07T17:55:04.010Z,13.47
2018-04-07T17:57:31.482Z,12.40
2018-04-07T17:59:59.746Z,12.83
2018-04-07T18:02:27.205Z,16.97
2018-04-07T18:04:54.661Z,14.50
2018-04-07T18:07:22.141Z,16.03
2018-04-07T18:09:50.361Z,19.87
2018-04-07T18:12:17.853Z,35.00
2018-04-07T18:14:45.333Z,21.67
2018-04-07T18:17:13.553Z,12.40
2018-04-07T18:19:41.050Z,16.93
2018-04-07T18:22:08.518Z,15.17
2018-04-07T18:24:36.016Z,12.77
2018-04-07T18:27:03.466Z,15.10
2018-04-07T18:29:30.957Z,15.27
2018-04-07T18:31:58.434Z,15.73
2018-04-07T18:34:25.947Z,14.57
2018-04-07T18:36:53.397Z,14.70
2018-04-07T18:39:20.871Z,14.90
2018-04-07T18:41:49.150Z,13.93
2018-04-07T18:44:16.609Z,12.93
2018-04-07T18:46:44.070Z,16.27
2018-04-07T18:49:12.322Z,15.83
2018-04-07T18:51:39.882Z,17.87
2018-04-07T18:54:07.357Z,14.57
2018-04-07T18:56:34.874Z,15.80
2018-04-07T18:59:02.372Z,14.80
2018-04-07T19:01:29.865Z,15.67
2018-04-07T19:03:57.428Z,13.17
2018-04-07T19:06:24.906Z,16.77
2018-04-07T19:08:52.385Z,14.90
2018-04-07T19:11:19.850Z,13.30
2018-04-07T19:13:47.330Z,19.40
2018-04-07T19:16:14.777Z,14.17
2018-04-07T19:18:42.286Z,15.97
2018-04-07T19:21:10.493Z,15.67
2018-04-07T19:23:37.968Z,14.17
2018-04-07T19:26:05.447Z,15.53
2018-04-07T19:28:32.938Z,14.20
2018-04-07T19:31:00.416Z,15.20
2018-04-07T19:33:27.896Z,21.43
2018-04-07T19:35:55.360Z,16.73
2018-04-07T19:38:22.854Z,16.67
2018-04-07T19:40:51.065Z,16.93
2018-04-07T19:43:18.558Z,17.20
2018-04-07T19:45:46.014Z,16.53
2018-04-07T19:48:13.641Z,14.77
2018-04-07T19:50:41.420Z,16.07
2018-04-07T19:53:08.894Z,16.83
2018-04-07T19:55:36.362Z,17.70
2018-04-07T19:58:03.876Z,26.90
2018-04-07T20:00:31.358Z,19.20
2018-04-07T20:02:59.709Z,17.43
2018-04-07T20:05:27.273Z,19.83
2018-04-07T20:07:54.748Z,19.13
2018-04-07T20:10:22.263Z,17.10
2018-04-07T20:12:50.520Z,19.07
2018-04-07T20:15:17.973Z,18.10
2018-04-07T20:17:45.461Z,19.17
2018-04-07T20:20:13.035Z,21.93
2018-04-07T20:22:40.517Z,17.70
2018-04-07T20:25:08.009Z,17.50
2018-04-07T20:27:35.490Z,17.00
2018-04-07T20:30:03.763Z,16.13
2018-04-07T20:32:31.230Z,14.97
2018-04-07T20:34:58.699Z,16.13
2018-04-07T20:37:26.189Z,19.57
2018-04-07T20:39:53.654Z,19.90
2018-04-07T20:42:27.332Z,20.90
2018-04-07T20:44:54.802Z,22.13
2018-04-07T20:47:23.184Z,23.37
2018-04-07T20:49:50.662Z,23.90
2018-04-07T20:52:18.141Z,20.20
2018-04-07T20:54:45.609Z,22.00
2018-04-07T20:57:13.108Z,21.47
2018-04-07T20:59:41.340Z,24.70
2018-04-07T21:02:09.593Z,22.60
2018-04-07T21:04:37.065Z,24.57
2018-04-07T21:07:05.306Z,24.80
2018-04-07T21:09:32.783Z,25.60
2018-04-07T21:12:00.324Z,27.57
2018-04-07T21:14:27.802Z,24.77
2018-04-07T21:16:55.453Z,25.40
2018-04-07T21:19:22.906Z,24.07
2018-04-07T21:21:50.444Z,27.80
2018-04-07T21:24:17.935Z,22.90
2018-04-07T21:26:45.442Z,23.37
2018-04-07T21:29:12.929Z,21.27
2018-04-07T21:31:40.390Z,21.23
2018-04-07T21:34:07.885Z,20.23
2018-04-07T21:36:36.114Z,22.47
2018-04-07T21:39:04.338Z,20.03
2018-04-07T21:41:31.829Z,21.47
2018-04-07T21:43:59.311Z,24.73
2018-04-07T21:46:26.782Z,20.03
2018-04-07T21:48:54.237Z,22.63
2018-04-07T21:51:21.725Z,24.33
2018-04-07T21:53:49.186Z,23.90
2018-04-07T21:56:16.670Z,21.43
2018-04-07T21:58:44.923Z,21.73
2018-04-07T22:01:12.390Z,27.30
2018-04-07T22:03:39.889Z,21.30
2018-04-07T22:06:07.373Z,20.67
2018-04-07T22:08:34.850Z,21.23
2018-04-07T22:11:03.076Z,19.60
2018-04-07T22:13:30.561Z,20.93
2018-04-07T22:15:58.039Z,22.73
2018-04-07T22:18:26.310Z,18.67
2018-04-07T22:20:54.542Z,19.57
2018-04-07T22:23:22.013Z,20.57
2018-04-07T22:25:49.545Z,23.83
2018-04-07T22:28:17.031Z,23.13
2018-04-07T22:30:44.487Z,23.17
2018-04-07T22:33:11.965Z,20.80
2018-04-07T22:35:39.457Z,22.33
2018-04-07T22:38:06.946Z,20.50
2018-04-07T22:40:35.181Z,18.30
2018-04-07T22:43:02.667Z,22.23
2018-04-07T22:45:30.162Z,23.23
2018-04-07T22:47:57.613Z,21.80
2018-04-07T22:50:25.106Z,21.40
2018-04-07T22:52:53.350Z,22.13
2018-04-07T22:55:20.832Z,21.77
2018-04-07T22:57:49.078Z,27.20
2018-04-07T23:00:26.728Z,28.03
2018-04-07T23:02:54.222Z,30.80
2018-04-07T23:05:21.690Z,24.03
2018-04-07T23:07:49.167Z,23.07
2018-04-07T23:10:17.386Z,26.30
2018-04-07T23:12:44.843Z,22.60
2018-04-07T23:15:12.326Z,23.57
2018-04-07T23:17:40.559Z,30.40
2018-04-07T23:20:08.781Z,24.00
2018-04-07T23:22:36.286Z,25.33
2018-04-07T23:25:03.772Z,28.20
2018-04-07T23:27:31.217Z,20.50
2018-04-07T23:29:58.706Z,29.37
2018-04-07T23:32:26.154Z,21.77
2018-04-07T23:34:53.635Z,21.20
2018-04-07T23:37:21.124Z,20.63
2018-04-07T23:39:49.346Z,20.07
2018-04-07T23:42:16.819Z,21.37
2018-04-07T23:44:44.322Z,20.43
2018-04-07T23:47:11.793Z,20.40
2018-04-07T23:49:39.250Z,19.13
2018-04-07T23:52:06.787Z,23.27
2018-04-07T23:54:34.202Z,17.90
2018-04-07T23:57:01.657Z,22.30
2018-04-07T23:59:29.126Z,21.93
